Time;durP1;ratioP1;P1;durP2;ratioP2;P2;SDS_P1;SDS_P2;PMS_P1;PMS_P2;Temp;Humidity;BMP_temperature;BMP_pressure;BME280_temperature;BME280_humidity;BME280_pressure;Samples;Min_cycle;Max_cycle;Signal;HPM_P1;HPM_P2
2022/08/23 00:01:12;;;;;;;7.10;6.10;;;14.80;99.90;;;;;;5046854;28;20429;-63
2022/08/23 00:03:39;;;;;;;8.30;6.10;;;14.70;99.90;;;;;;5045645;28;20445;-63
2022/08/23 00:06:06;;;;;;;8.17;6.50;;;14.70;99.90;;;;;;5038261;28;20518;-63
2022/08/23 00:08:32;;;;;;;13.47;6.37;;;14.70;99.90;;;;;;5042436;28;20871;-63
2022/08/23 00:10:59;;;;;;;7.57;6.63;;;14.70;99.90;;;;;;5045921;28;20433;-63
2022/08/23 00:13:25;;;;;;;9.00;6.40;;;14.60;99.90;;;;;;5040876;28;20470;-63
2022/08/23 00:15:50;;;;;;;8.03;6.90;;;14.60;99.90;;;;;;5032953;28;20454;-63
2022/08/23 00:18:17;;;;;;;9.27;7.23;;;14.60;99.90;;;;;;5044314;28;20172;-63
2022/08/23 00:20:43;;;;;;;12.93;6.90;;;14.60;99.90;;;;;;5049219;28;20259;-62
2022/08/23 00:23:09;;;;;;;7.67;6.33;;;14.50;99.90;;;;;;5045282;28;20425;-63
2022/08/23 00:25:35;;;;;;;7.87;5.87;;;14.50;99.90;;;;;;5042501;28;20505;-64
2022/08/23 00:28:01;;;;;;;8.50;6.43;;;14.50;99.90;;;;;;5046625;28;20966;-63
2022/08/23 00:30:27;;;;;;;8.77;6.70;;;14.50;99.90;;;;;;5049868;28;20269;-64
2022/08/23 00:32:53;;;;;;;9.40;7.00;;;14.40;99.90;;;;;;5050998;28;20178;-63
2022/08/23 00:35:19;;;;;;;11.57;6.40;;;14.40;99.90;;;;;;5051427;28;20472;-63
2022/08/23 00:37:45;;;;;;;7.93;5.90;;;14.40;99.90;;;;;;5052812;28;20434;-63
2022/08/23 00:40:14;;;;;;;7.03;6.33;;;14.40;99.90;;;;;;5051936;28;20178;-63
2022/08/23 00:48:33;;;;;;;12.37;7.13;;;14.30;99.90;;;;;;5048901;28;21193;-62
2022/08/23 00:51:56;;;;;;;7.90;7.07;;;14.30;99.90;;;;;;5054815;28;20468;-63
2022/08/23 00:54:25;;;;;;;6.43;5.60;;;14.30;99.90;;;;;;4987164;28;20468;-64
2022/08/23 00:56:51;;;;;;;12.63;6.67;;;14.20;99.90;;;;;;4980465;28;20490;-63
2022/08/23 00:59:17;;;;;;;7.97;6.53;;;14.20;99.90;;;;;;5023419;28;20438;-63
2022/08/23 01:01:42;;;;;;;6.73;6.03;;;14.10;99.90;;;;;;5053286;28;20440;-63
2022/08/23 01:04:11;;;;;;;10.87;6.57;;;14.10;99.90;;;;;;5041071;28;20290;-62
2022/08/23 01:06:53;;;;;;;11.00;6.40;;;14.10;99.90;;;;;;5060672;28;20283;-64
2022/08/23 01:09:21;;;;;;;7.43;6.60;;;14.00;99.90;;;;;;5055548;28;20448;-64
2022/08/23 01:12:03;;;;;;;9.47;7.07;;;14.00;99.90;;;;;;5047228;28;20453;-63
2022/08/23 01:14:32;;;;;;;9.53;6.90;;;14.00;99.90;;;;;;5041288;28;20453;-64
2022/08/23 01:17:13;;;;;;;9.37;7.50;;;13.90;99.90;;;;;;5049786;28;20480;-64
2022/08/23 01:19:51;;;;;;;13.30;7.23;;;13.80;99.90;;;;;;5047801;28;20483;-64
2022/08/23 01:22:33;;;;;;;7.40;6.10;;;13.80;99.90;;;;;;5044189;28;20437;-64
2022/08/23 01:25:01;;;;;;;7.70;6.60;;;13.80;99.90;;;;;;5043006;28;20430;-64
2022/08/23 01:27:27;;;;;;;9.53;6.33;;;13.80;99.90;;;;;;5039643;28;20425;-64
2022/08/23 01:29:53;;;;;;;10.63;6.30;;;13.70;99.90;;;;;;5040252;28;20444;-64
2022/08/23 01:32:18;;;;;;;8.97;7.00;;;13.70;99.90;;;;;;5041790;28;20504;-64
2022/08/23 01:34:44;;;;;;;8.03;7.10;;;13.70;99.90;;;;;;5050090;28;20298;-63
2022/08/23 01:37:10;;;;;;;7.87;7.00;;;13.70;99.90;;;;;;5047448;28;20453;-64
2022/08/23 01:39:36;;;;;;;8.50;6.43;;;13.60;99.90;;;;;;5046111;28;20172;-63
2022/08/23 01:42:03;;;;;;;8.60;6.40;;;13.70;99.90;;;;;;5041565;28;20176;-63
2022/08/23 01:44:28;;;;;;;9.73;6.80;;;13.60;99.90;;;;;;5044383;28;20354;-64
2022/08/23 01:46:54;;;;;;;8.27;6.20;;;13.70;99.90;;;;;;5048424;28;20962;-63
2022/08/23 01:49:20;;;;;;;8.83;6.70;;;13.60;99.90;;;;;;5043558;28;20266;-64
2022/08/23 01:51:46;;;;;;;7.60;6.50;;;13.70;99.90;;;;;;5042581;28;20175;-65
2022/08/23 01:54:12;;;;;;;11.03;6.77;;;13.60;99.90;;;;;;5037469;28;20230;-63
2022/08/23 01:56:39;;;;;;;8.27;6.70;;;13.50;99.90;;;;;;5044149;28;20198;-64
2022/08/23 01:59:07;;;;;;;8.07;6.40;;;13.50;99.90;;;;;;5039077;28;20918;-63
2022/08/23 02:01:33;;;;;;;9.40;6.87;;;13.50;99.90;;;;;;5042124;28;20421;-63
2022/08/23 02:04:00;;;;;;;8.73;6.27;;;13.50;99.90;;;;;;5034312;28;20433;-63
2022/08/23 02:06:26;;;;;;;9.37;6.57;;;13.50;99.90;;;;;;5034784;28;20958;-63
2022/08/23 02:09:01;;;;;;;8.80;7.00;;;13.50;99.90;;;;;;5035943;28;20430;-63
2022/08/23 02:11:29;;;;;;;7.83;6.53;;;13.50;99.90;;;;;;5038044;28;20426;-63
2022/08/23 02:13:58;;;;;;;10.10;6.63;;;13.50;99.90;;;;;;5038986;28;20480;-63
2022/08/23 02:16:29;;;;;;;11.57;6.60;;;13.40;99.90;;;;;;5031542;28;20479;-62
2022/08/23 02:18:56;;;;;;;17.37;7.20;;;13.40;99.90;;;;;;5035457;28;20483;-64
2022/08/23 02:21:22;;;;;;;8.37;6.63;;;13.40;99.90;;;;;;5036244;28;20425;-63
2022/08/23 02:23:50;;;;;;;9.03;7.53;;;13.40;99.90;;;;;;5049323;28;20937;-63
2022/08/23 02:26:16;;;;;;;11.53;6.63;;;13.40;99.90;;;;;;5043873;28;21123;-64
2022/08/23 02:28:42;;;;;;;9.30;5.93;;;13.40;99.90;;;;;;5040118;28;20429;-63
2022/08/23 02:31:07;;;;;;;7.93;6.50;;;13.30;99.90;;;;;;5034649;28;20444;-62
2022/08/23 02:33:33;;;;;;;7.97;5.67;;;13.30;99.90;;;;;;5036375;28;20570;-63
2022/08/23 02:35:59;;;;;;;8.27;7.03;;;13.30;99.90;;;;;;5037992;28;20211;-65
2022/08/23 02:38:24;;;;;;;8.23;6.37;;;13.20;99.90;;;;;;5045987;28;20179;-60
2022/08/23 02:40:51;;;;;;;10.80;6.10;;;13.20;99.90;;;;;;5044015;28;20185;-62
2022/08/23 02:43:17;;;;;;;9.50;6.30;;;13.20;99.90;;;;;;5044361;28;20181;-62
2022/08/23 02:45:44;;;;;;;8.27;6.63;;;13.20;99.90;;;;;;5047672;28;20457;-62
2022/08/23 02:48:10;;;;;;;9.13;6.47;;;13.20;99.90;;;;;;5044457;28;20181;-62
2022/08/23 02:50:36;;;;;;;8.03;6.40;;;13.20;99.90;;;;;;5039674;28;20426;-63
2022/08/23 02:53:03;;;;;;;6.50;5.80;;;13.10;99.90;;;;;;5029283;28;20437;-62
2022/08/23 02:55:28;;;;;;;10.53;7.17;;;13.10;99.90;;;;;;5036217;28;20516;-56
2022/08/23 02:57:54;;;;;;;7.23;6.47;;;13.00;99.90;;;;;;5045344;28;20426;-56
2022/08/23 03:00:21;;;;;;;7.07;6.27;;;13.00;99.90;;;;;;5045138;28;20182;-56
2022/08/23 03:02:46;;;;;;;6.57;5.97;;;13.00;99.90;;;;;;5042100;28;20174;-55
2022/08/23 03:05:13;;;;;;;7.27;6.47;;;13.00;99.90;;;;;;5036768;28;20433;-56
2022/08/23 03:07:40;;;;;;;7.83;6.70;;;13.00;99.90;;;;;;5024949;28;20291;-63
2022/08/23 03:10:08;;;;;;;9.23;6.60;;;12.90;99.90;;;;;;5043539;28;20430;-62
2022/08/23 03:12:34;;;;;;;6.93;6.17;;;12.90;99.90;;;;;;5037305;28;20428;-62
2022/08/23 03:15:00;;;;;;;6.57;5.97;;;12.90;99.90;;;;;;5035471;28;20831;-61
2022/08/23 03:17:26;;;;;;;6.93;6.23;;;12.90;99.90;;;;;;5029781;28;20521;-58
2022/08/23 03:19:51;;;;;;;7.10;6.03;;;12.90;99.90;;;;;;5032362;28;20794;-56
2022/08/23 03:22:18;;;;;;;8.50;6.53;;;12.90;99.90;;;;;;5041020;28;20486;-53
2022/08/23 03:24:44;;;;;;;6.93;6.23;;;12.90;99.90;;;;;;5037929;28;20183;-63
2022/08/23 03:27:10;;;;;;;9.07;7.20;;;12.90;99.90;;;;;;5044384;28;20466;-65
2022/08/23 03:29:36;;;;;;;7.03;6.33;;;12.90;99.90;;;;;;5032231;28;20467;-63
2022/08/23 03:32:03;;;;;;;9.43;6.70;;;12.90;99.90;;;;;;5029139;28;20187;-63
2022/08/23 03:34:29;;;;;;;8.10;6.27;;;12.80;99.90;;;;;;5026082;28;20511;-64
2022/08/23 03:36:55;;;;;;;6.83;6.13;;;12.80;99.90;;;;;;5024435;28;20460;-64
2022/08/23 03:39:21;;;;;;;8.57;6.03;;;12.80;99.90;;;;;;5027605;28;20434;-64
2022/08/23 03:41:46;;;;;;;9.13;6.70;;;12.70;99.90;;;;;;5034576;28;20529;-64
2022/08/23 03:44:12;;;;;;;7.67;6.20;;;12.70;99.90;;;;;;5050826;28;20194;-64
2022/08/23 03:46:38;;;;;;;11.50;6.23;;;12.70;99.90;;;;;;5040086;28;20278;-64
2022/08/23 03:49:04;;;;;;;8.70;7.37;;;12.60;99.90;;;;;;5036857;28;20195;-64
2022/08/23 03:51:31;;;;;;;11.53;6.97;;;12.60;99.90;;;;;;5041691;28;20185;-64
2022/08/23 03:53:59;;;;;;;7.30;6.23;;;12.60;99.90;;;;;;5046740;28;20490;-64
2022/08/23 03:56:30;;;;;;;15.07;6.70;;;12.50;99.90;;;;;;5046725;28;20452;-64
2022/08/23 03:58:58;;;;;;;6.90;6.20;;;12.60;99.90;;;;;;5058367;28;20416;-63
2022/08/23 04:01:24;;;;;;;11.73;6.00;;;12.50;99.90;;;;;;5042895;28;20429;-63
2022/08/23 04:03:50;;;;;;;7.30;6.20;;;12.50;99.90;;;;;;5062487;28;20472;-64
2022/08/23 04:06:17;;;;;;;7.03;6.20;;;12.50;99.90;;;;;;5041621;28;20702;-64
2022/08/23 04:08:44;;;;;;;8.10;5.60;;;12.50;99.90;;;;;;5049733;28;20703;-64
2022/08/23 04:11:11;;;;;;;8.87;6.60;;;12.50;99.90;;;;;;5056247;28;20433;-64
2022/08/23 04:13:38;;;;;;;9.50;6.30;;;12.50;99.90;;;;;;5052757;28;20445;-65
2022/08/23 04:16:04;;;;;;;8.47;6.20;;;12.50;99.90;;;;;;5042773;28;20461;-63
2022/08/23 04:18:31;;;;;;;7.27;6.57;;;12.40;99.90;;;;;;5056229;28;20491;-64
2022/08/23 04:20:58;;;;;;;7.37;6.40;;;12.40;99.90;;;;;;5059770;28;21147;-64
2022/08/23 04:23:26;;;;;;;7.63;6.30;;;12.30;99.90;;;;;;5056537;28;20455;-63
2022/08/23 04:25:53;;;;;;;13.97;6.83;;;12.30;99.90;;;;;;5043667;28;20457;-64
2022/08/23 04:28:19;;;;;;;12.23;6.43;;;12.30;99.90;;;;;;5049040;28;20523;-64
2022/08/23 04:30:44;;;;;;;9.70;6.10;;;12.30;99.90;;;;;;5047181;28;20437;-64
2022/08/23 04:33:11;;;;;;;7.70;6.57;;;12.30;99.90;;;;;;5050816;28;20805;-65
2022/08/23 04:35:36;;;;;;;6.47;5.83;;;12.30;99.90;;;;;;5048938;28;20187;-64
2022/08/23 04:38:02;;;;;;;7.00;6.23;;;12.30;99.90;;;;;;5048749;28;20429;-64
2022/08/23 04:43:11;;;;;;;10.50;7.30;;;12.30;99.90;;;;;;5051069;28;20669;-64
2022/08/23 04:45:39;;;;;;;8.00;6.90;;;12.20;99.90;;;;;;5049225;28;20457;-65
2022/08/23 04:48:05;;;;;;;7.60;6.40;;;12.30;99.90;;;;;;5051969;28;20183;-64
2022/08/23 04:50:32;;;;;;;7.47;6.67;;;12.30;99.90;;;;;;5043395;28;20433;-64
2022/08/23 04:52:57;;;;;;;6.70;6.00;;;12.30;99.90;;;;;;5047160;28;20437;-65
2022/08/23 04:55:23;;;;;;;8.43;6.03;;;12.30;99.90;;;;;;5046051;28;20470;-64
2022/08/23 04:57:49;;;;;;;11.73;6.73;;;12.30;99.90;;;;;;5061210;28;20174;-65
2022/08/23 05:00:15;;;;;;;8.80;6.50;;;12.30;99.90;;;;;;5042245;28;20614;-65
2022/08/23 05:02:41;;;;;;;8.30;6.90;;;12.30;99.90;;;;;;5053862;28;20432;-65
2022/08/23 05:05:09;;;;;;;10.33;7.13;;;12.30;99.90;;;;;;5056014;28;20405;-64
2022/08/23 05:07:36;;;;;;;8.17;7.07;;;12.30;99.90;;;;;;5050033;28;20433;-64
2022/08/23 05:10:06;;;;;;;10.63;6.77;;;12.30;99.90;;;;;;5050570;28;20445;-64
2022/08/23 05:12:32;;;;;;;9.27;6.60;;;12.30;99.90;;;;;;5041936;28;20493;-64
2022/08/23 05:14:58;;;;;;;8.50;6.07;;;12.30;99.90;;;;;;5051565;28;20852;-63
2022/08/23 05:17:24;;;;;;;6.43;5.67;;;12.40;99.90;;;;;;5047708;28;20430;-65
2022/08/23 05:19:50;;;;;;;6.37;5.73;;;12.40;99.90;;;;;;5053852;28;20179;-65
2022/08/23 05:22:15;;;;;;;6.87;6.17;;;12.50;99.90;;;;;;5052007;28;20430;-65
2022/08/23 05:24:41;;;;;;;7.90;6.30;;;12.50;99.90;;;;;;5042264;28;20194;-65
2022/08/23 05:27:06;;;;;;;7.57;6.60;;;12.60;99.90;;;;;;5057567;28;20707;-65
2022/08/23 05:29:32;;;;;;;7.47;6.23;;;12.70;99.90;;;;;;5047472;28;20205;-64
2022/08/23 05:31:58;;;;;;;6.50;5.90;;;12.70;99.90;;;;;;5055408;28;20532;-65
2022/08/23 05:34:24;;;;;;;8.50;5.70;;;12.80;99.90;;;;;;5055711;28;20191;-65
2022/08/23 05:36:51;;;;;;;8.33;6.00;;;12.90;99.90;;;;;;5045655;28;20183;-66
2022/08/23 05:39:17;;;;;;;11.40;6.33;;;12.90;99.90;;;;;;5040769;28;20437;-63
2022/08/23 05:41:43;;;;;;;6.77;5.60;;;13.00;99.90;;;;;;5051507;28;20432;-65
2022/08/23 05:44:09;;;;;;;10.23;6.50;;;13.00;99.90;;;;;;5053923;28;21271;-64
2022/08/23 05:46:36;;;;;;;7.33;5.80;;;13.10;99.90;;;;;;5042730;28;20452;-63
2022/08/23 05:49:02;;;;;;;7.20;6.40;;;13.10;99.90;;;;;;5047482;28;20430;-65
2022/08/23 05:51:30;;;;;;;11.20;6.37;;;13.10;99.90;;;;;;5043572;28;20434;-63
2022/08/23 05:54:04;;;;;;;12.47;6.43;;;13.20;99.90;;;;;;5045809;28;20449;-62
2022/08/23 05:56:33;;;;;;;7.80;6.10;;;13.30;99.90;;;;;;5048216;28;21015;-61
2022/08/23 05:59:02;;;;;;;8.00;6.67;;;13.30;99.90;;;;;;5050048;28;20407;-64
2022/08/23 06:01:29;;;;;;;8.27;5.80;;;13.40;99.90;;;;;;5047061;28;20418;-63
2022/08/23 06:03:57;;;;;;;7.43;6.10;;;13.40;99.90;;;;;;5050576;28;20781;-63
2022/08/23 06:06:22;;;;;;;8.60;7.00;;;13.50;99.90;;;;;;5045931;28;20456;-63
2022/08/23 06:08:48;;;;;;;12.57;7.00;;;13.50;99.90;;;;;;5052202;28;20425;-63
2022/08/23 06:11:23;;;;;;;10.73;8.93;;;13.60;99.90;;;;;;5052009;28;20178;-63
2022/08/23 06:13:55;;;;;;;10.73;7.40;;;13.60;99.90;;;;;;5040035;28;20211;-64
2022/08/23 06:16:32;;;;;;;9.00;7.20;;;13.70;99.90;;;;;;5039597;28;20460;-63
2022/08/23 06:19:01;;;;;;;9.57;6.60;;;13.80;99.90;;;;;;5048373;28;20433;-62
2022/08/23 06:21:28;;;;;;;12.07;8.23;;;13.80;99.90;;;;;;5045450;28;20969;-64
2022/08/23 06:23:54;;;;;;;11.30;8.00;;;13.80;99.90;;;;;;5051780;28;20848;-63
2022/08/23 06:26:20;;;;;;;10.37;8.17;;;13.90;99.90;;;;;;5050209;28;20457;-64
2022/08/23 06:28:48;;;;;;;14.17;8.23;;;14.00;99.90;;;;;;5049356;28;20433;-64
2022/08/23 06:31:14;;;;;;;9.83;7.80;;;14.10;99.90;;;;;;5040457;28;20639;-64
2022/08/23 06:33:41;;;;;;;10.20;9.07;;;14.20;99.90;;;;;;5060579;28;20536;-64
2022/08/23 06:36:10;;;;;;;15.47;8.47;;;14.20;99.90;;;;;;5064212;28;20663;-64
2022/08/23 06:38:36;;;;;;;13.93;9.40;;;14.30;99.90;;;;;;5044906;28;20512;-64
2022/08/23 06:41:09;;;;;;;14.30;9.73;;;14.40;99.90;;;;;;5045561;28;20509;-63
2022/08/23 06:43:35;;;;;;;11.17;8.40;;;14.50;99.90;;;;;;5049154;28;20203;-64
2022/08/23 06:46:21;;;;;;;15.60;9.13;;;14.60;99.90;;;;;;5048891;28;20452;-64
2022/08/23 06:48:47;;;;;;;11.50;9.77;;;14.70;99.90;;;;;;5057809;28;20833;-63
2022/08/23 06:51:38;;;;;;;22.13;11.33;;;14.80;99.90;;;;;;5049731;28;20438;-64
2022/08/23 06:54:10;;;;;;;13.60;9.13;;;14.90;99.90;;;;;;5028049;28;20299;-63
2022/08/23 06:56:36;;;;;;;17.40;10.30;;;15.00;99.90;;;;;;5044228;28;20461;-65
2022/08/23 06:59:05;;;;;;;18.43;11.27;;;15.00;99.90;;;;;;5050172;28;20428;-64
2022/08/23 07:01:39;;;;;;;11.90;9.90;;;15.10;99.90;;;;;;5046578;28;20436;-64
2022/08/23 07:04:07;;;;;;;13.33;9.27;;;15.20;99.90;;;;;;5055150;28;20506;-65
2022/08/23 07:06:33;;;;;;;8.73;7.80;;;15.30;99.90;;;;;;5041586;28;20441;-63
2022/08/23 07:08:59;;;;;;;9.90;8.13;;;15.40;99.90;;;;;;5049709;28;20531;-62
2022/08/23 07:11:25;;;;;;;11.20;9.27;;;15.50;99.90;;;;;;5040824;28;20437;-64
2022/08/23 07:13:52;;;;;;;9.63;8.10;;;15.50;99.90;;;;;;5051148;28;20503;-63
2022/08/23 07:16:18;;;;;;;14.27;9.00;;;15.60;99.90;;;;;;5037385;28;20450;-64
2022/08/23 07:18:45;;;;;;;13.90;9.30;;;15.70;99.90;;;;;;5055119;28;20437;-63
2022/08/23 07:21:12;;;;;;;14.77;8.63;;;15.80;99.90;;;;;;5050728;28;20420;-64
2022/08/23 07:23:38;;;;;;;12.80;8.13;;;16.00;99.80;;;;;;5046002;28;20525;-63
2022/08/23 07:26:11;;;;;;;8.00;7.20;;;16.10;99.20;;;;;;5049701;28;20464;-65
2022/08/23 07:28:38;;;;;;;11.23;6.87;;;16.20;99.40;;;;;;5051831;28;20433;-65
2022/08/23 07:31:15;;;;;;;11.67;6.57;;;16.40;98.20;;;;;;5042927;28;20426;-64
2022/08/23 07:33:42;;;;;;;7.07;6.37;;;16.40;97.20;;;;;;5046176;28;20515;-63
2022/08/23 07:36:09;;;;;;;8.30;6.10;;;16.60;96.90;;;;;;5045512;28;20457;-63
2022/08/23 07:38:35;;;;;;;7.10;5.60;;;16.70;96.30;;;;;;5056432;28;20539;-63
2022/08/23 07:41:04;;;;;;;5.30;4.80;;;16.80;94.80;;;;;;5042332;28;20434;-64
2022/08/23 07:43:33;;;;;;;6.00;4.67;;;16.90;93.70;;;;;;5043546;28;20438;-64
2022/08/23 07:45:59;;;;;;;5.83;5.20;;;17.00;93.30;;;;;;5041608;28;20515;-63
2022/08/23 07:48:25;;;;;;;7.40;4.93;;;17.10;93.00;;;;;;5053499;28;20433;-64
2022/08/23 07:50:56;;;;;;;7.57;5.47;;;17.20;94.10;;;;;;5044848;28;20791;-64
2022/08/23 07:53:22;;;;;;;6.97;5.17;;;17.30;95.20;;;;;;5047453;28;20575;-65
2022/08/23 07:55:48;;;;;;;8.67;4.77;;;17.40;95.20;;;;;;5039782;28;20470;-63
2022/08/23 07:58:14;;;;;;;8.13;4.57;;;17.60;94.80;;;;;;5038530;28;20442;-63
2022/08/23 08:00:39;;;;;;;5.33;4.63;;;17.70;94.60;;;;;;5037027;28;20237;-62
2022/08/23 08:03:05;;;;;;;7.93;5.20;;;17.90;94.80;;;;;;5030224;28;20731;-65
2022/08/23 08:05:31;;;;;;;5.30;4.57;;;18.00;93.70;;;;;;5040595;28;20203;-65
2022/08/23 08:07:57;;;;;;;8.53;5.00;;;18.10;91.70;;;;;;5042114;28;20216;-64
2022/08/23 08:10:23;;;;;;;5.87;5.20;;;18.20;90.20;;;;;;5037308;28;20464;-64
2022/08/23 08:12:48;;;;;;;12.37;6.07;;;18.30;88.20;;;;;;5034729;28;20238;-64
2022/08/23 08:15:16;;;;;;;7.57;5.60;;;18.40;85.20;;;;;;5036502;28;20261;-62
2022/08/23 08:17:42;;;;;;;7.83;6.10;;;18.50;82.60;;;;;;5036754;28;20178;-64
2022/08/23 08:20:08;;;;;;;6.40;4.80;;;18.70;79.50;;;;;;5034652;28;20433;-65
2022/08/23 08:22:34;;;;;;;7.53;5.27;;;18.80;77.70;;;;;;5053759;28;20189;-64
2022/08/23 08:25:00;;;;;;;8.63;4.90;;;18.90;73.70;;;;;;5043443;28;20429;-61
2022/08/23 08:27:26;;;;;;;8.33;5.07;;;19.00;72.10;;;;;;5054908;28;20521;-64
2022/08/23 08:29:51;;;;;;;5.03;4.20;;;19.10;69.90;;;;;;5045691;28;20516;-64
2022/08/23 08:32:17;;;;;;;9.50;3.97;;;19.20;68.90;;;;;;5056845;28;20333;-64
2022/08/23 08:34:43;;;;;;;8.70;4.67;;;19.40;67.00;;;;;;5056243;28;20228;-64
2022/08/23 08:37:08;;;;;;;4.57;4.17;;;19.50;65.70;;;;;;5044902;28;20203;-64
2022/08/23 08:39:34;;;;;;;6.90;4.60;;;19.60;67.60;;;;;;5046041;28;20213;-64
2022/08/23 08:41:59;;;;;;;6.93;4.00;;;19.80;66.90;;;;;;5059025;28;20662;-64
2022/08/23 08:44:37;;;;;;;12.13;4.43;;;19.90;65.40;;;;;;5042321;28;20203;-63
2022/08/23 08:47:17;;;;;;;7.20;4.20;;;20.10;65.50;;;;;;5060528;28;20191;-63
2022/08/23 08:49:56;;;;;;;7.13;5.07;;;20.20;66.90;;;;;;5049793;28;20505;-64
2022/08/23 08:52:29;;;;;;;7.27;4.63;;;20.40;66.10;;;;;;5031629;28;20448;-64
2022/08/23 08:55:03;;;;;;;14.60;5.10;;;20.50;66.00;;;;;;5055428;28;21148;-64
2022/08/23 08:57:36;;;;;;;5.37;4.20;;;20.70;65.80;;;;;;5054106;28;20506;-63
2022/08/23 09:00:08;;;;;;;7.70;4.03;;;20.80;64.30;;;;;;5049287;28;20425;-64
2022/08/23 09:02:34;;;;;;;3.50;3.20;;;20.90;64.10;;;;;;5061200;28;20470;-64
2022/08/23 09:05:04;;;;;;;6.17;3.40;;;21.10;59.40;;;;;;5050501;28;20425;-63
2022/08/23 09:07:59;;;;;;;4.10;2.90;;;21.20;58.40;;;;;;5042010;28;20681;-64
2022/08/23 09:10:43;;;;;;;5.63;3.47;;;21.30;56.90;;;;;;5044616;28;20964;-64
2022/08/23 09:13:23;;;;;;;5.73;3.27;;;21.40;57.40;;;;;;5056101;28;20460;-65
2022/08/23 09:16:13;;;;;;;5.33;2.97;;;21.60;56.20;;;;;;5042872;28;20572;-67
2022/08/23 09:18:39;;;;;;;3.77;2.50;;;21.70;54.40;;;;;;5046597;28;20434;-64
2022/08/23 09:21:07;;;;;;;7.33;3.27;;;21.90;54.50;;;;;;5048439;28;20433;-64
2022/08/23 09:23:39;;;;;;;4.37;2.80;;;22.10;53.80;;;;;;5048328;28;20176;-65
2022/08/23 09:26:16;;;;;;;4.77;2.70;;;22.20;53.70;;;;;;5051858;28;20450;-63
2022/08/23 09:28:44;;;;;;;3.50;2.70;;;22.40;53.90;;;;;;5045766;28;20429;-65
2022/08/23 09:31:10;;;;;;;7.57;3.23;;;22.60;52.70;;;;;;5053317;28;20502;-65
2022/08/23 09:33:42;;;;;;;2.97;2.67;;;22.70;52.40;;;;;;5046019;28;20434;-65
2022/08/23 09:36:21;;;;;;;3.83;2.73;;;22.90;52.30;;;;;;5043341;28;20199;-64
2022/08/23 09:39:01;;;;;;;3.13;2.57;;;23.00;51.20;;;;;;5051258;28;20433;-64
2022/08/23 09:41:46;;;;;;;4.03;2.67;;;23.10;50.50;;;;;;5044296;28;20426;-66
2022/08/23 09:44:28;;;;;;;4.73;2.70;;;23.30;50.10;;;;;;5043525;28;20460;-65
2022/08/23 09:47:05;;;;;;;8.73;2.93;;;23.40;48.90;;;;;;5045377;28;20993;-65
2022/08/23 09:49:31;;;;;;;6.20;2.67;;;23.50;48.00;;;;;;5047611;28;20433;-65
2022/08/23 09:52:09;;;;;;;12.30;2.70;;;23.50;48.60;;;;;;5050334;28;20578;-64
2022/08/23 09:54:36;;;;;;;3.13;2.67;;;23.60;48.00;;;;;;5043853;28;20225;-64
2022/08/23 09:57:08;;;;;;;3.13;2.40;;;23.60;46.50;;;;;;5045351;28;20941;-63
2022/08/23 09:59:38;;;;;;;4.03;2.40;;;23.70;47.10;;;;;;5050591;28;20483;-63
2022/08/23 10:02:08;;;;;;;4.33;2.60;;;23.80;46.30;;;;;;5050860;28;20491;-65
2022/08/23 10:04:45;;;;;;;3.67;2.47;;;23.90;45.70;;;;;;5053409;28;20574;-64
2022/08/23 10:07:28;;;;;;;2.83;2.20;;;24.00;45.70;;;;;;5049080;28;20540;-64
2022/08/23 10:10:33;;;;;;;6.23;2.43;;;24.00;44.80;;;;;;5057641;28;21024;-65
2022/08/23 10:13:00;;;;;;;4.37;2.40;;;24.10;45.20;;;;;;5043089;28;20444;-64
2022/08/23 10:15:55;;;;;;;2.23;2.03;;;24.20;44.50;;;;;;5044395;28;20465;-64
2022/08/23 10:18:42;;;;;;;2.80;2.60;;;24.30;43.80;;;;;;5043301;28;20429;-65
2022/08/23 10:21:21;;;;;;;5.70;2.53;;;24.40;43.30;;;;;;5048520;28;20804;-64
2022/08/23 10:23:53;;;;;;;3.07;2.37;;;24.40;42.60;;;;;;5044127;28;20526;-63
2022/08/23 10:26:28;;;;;;;4.30;2.10;;;24.40;43.60;;;;;;5041142;28;20451;-64
2022/08/23 10:32:28;;;;;;;6.10;2.50;;;24.50;44.30;;;;;;5046198;28;20850;-64
2022/08/23 10:35:21;;;;;;;4.00;2.30;;;24.60;45.20;;;;;;5049330;28;20499;-65
2022/08/23 10:38:09;;;;;;;4.90;2.47;;;24.70;46.10;;;;;;5045154;28;20430;-63
2022/08/23 10:40:57;;;;;;;5.00;2.63;;;24.90;45.00;;;;;;5046238;28;20440;-64
2022/08/23 10:43:32;;;;;;;4.60;2.63;;;24.90;41.90;;;;;;5049610;28;20437;-64
2022/08/23 10:46:00;;;;;;;6.23;2.80;;;24.90;43.30;;;;;;5044075;28;20474;-65
2022/08/23 10:48:47;;;;;;;3.80;2.60;;;25.00;41.90;;;;;;5043549;28;20464;-64
2022/08/23 10:51:22;;;;;;;6.57;2.50;;;25.10;43.10;;;;;;5041293;28;20432;-65
2022/08/23 10:53:55;;;;;;;2.70;2.50;;;25.20;43.70;;;;;;5041750;28;20765;-64
2022/08/23 10:56:22;;;;;;;4.87;2.80;;;25.30;44.30;;;;;;5042859;28;20449;-64
2022/08/23 10:58:59;;;;;;;3.90;2.40;;;25.20;41.20;;;;;;5048114;28;22333;-64
2022/08/23 11:01:38;;;;;;;3.60;2.27;;;25.30;40.80;;;;;;5041884;28;20952;-65
2022/08/23 11:04:15;;;;;;;3.57;2.67;;;25.30;42.90;;;;;;5040953;28;20433;-63
2022/08/23 11:06:48;;;;;;;7.73;2.70;;;25.40;44.10;;;;;;5042787;28;20448;-64
2022/08/23 11:09:19;;;;;;;7.00;2.50;;;25.60;42.30;;;;;;5046873;28;20987;-65
2022/08/23 11:12:19;;;;;;;4.97;2.90;;;25.70;42.60;;;;;;5057348;28;20519;-65
2022/08/23 11:14:47;;;;;;;3.03;2.60;;;25.70;40.40;;;;;;5045099;28;20780;-63
2022/08/23 11:17:24;;;;;;;4.30;2.40;;;25.60;40.50;;;;;;5043745;28;20421;-62
2022/08/23 11:19:52;;;;;;;10.17;2.60;;;25.70;42.00;;;;;;5041505;28;20437;-64
2022/08/23 11:22:22;;;;;;;3.93;2.40;;;25.70;42.50;;;;;;5055406;28;20432;-64
2022/08/23 11:25:05;;;;;;;2.93;2.20;;;25.90;42.70;;;;;;5046805;28;20425;-63
2022/08/23 11:27:42;;;;;;;2.77;2.17;;;26.10;43.80;;;;;;5038347;28;20440;-64
2022/08/23 11:30:35;;;;;;;7.00;2.80;;;26.30;43.60;;;;;;5045207;28;20437;-65
2022/08/23 11:33:16;;;;;;;3.20;2.40;;;26.50;44.00;;;;;;5048785;28;20437;-62
2022/08/23 11:35:46;;;;;;;3.07;2.43;;;26.60;43.40;;;;;;5041519;28;20460;-65
2022/08/23 11:38:13;;;;;;;6.50;2.83;;;26.70;42.10;;;;;;5069541;28;20400;-63
2022/08/23 11:40:50;;;;;;;5.03;2.87;;;26.80;41.90;;;;;;5049765;28;20436;-64
2022/08/23 11:43:31;;;;;;;2.90;2.67;;;27.00;42.20;;;;;;5042008;28;20449;-63
2022/08/23 11:46:33;;;;;;;2.97;2.30;;;27.10;43.40;;;;;;5051848;28;20493;-65
2022/08/23 11:49:14;;;;;;;4.67;2.77;;;27.30;43.80;;;;;;5005059;28;20560;-65
2022/08/23 11:52:02;;;;;;;5.87;2.90;;;27.40;42.80;;;;;;5041980;28;20262;-65
2022/08/23 11:54:59;;;;;;;5.07;2.97;;;27.60;42.20;;;;;;5039591;28;20198;-65
2022/08/23 11:57:53;;;;;;;7.40;2.60;;;27.70;42.40;;;;;;5029761;28;20206;-64
2022/08/23 12:00:27;;;;;;;3.27;2.47;;;27.90;42.30;;;;;;5039113;28;20253;-65
2022/08/23 12:03:00;;;;;;;2.80;2.43;;;28.00;40.70;;;;;;5055831;28;20201;-65
2022/08/23 12:05:49;;;;;;;3.10;2.40;;;28.20;39.90;;;;;;5054788;28;20201;-65
2022/08/23 12:08:32;;;;;;;2.60;2.37;;;28.20;38.80;;;;;;5016162;28;22452;-63
2022/08/23 12:11:02;;;;;;;3.30;2.37;;;28.30;38.30;;;;;;5044852;28;20181;-63
2022/08/23 12:13:53;;;;;;;9.57;2.60;;;28.30;38.70;;;;;;5045876;28;20619;-66
2022/08/23 12:16:18;;;;;;;7.07;2.27;;;28.40;40.10;;;;;;5034309;28;20207;-65
2022/08/23 12:18:52;;;;;;;5.20;2.70;;;28.50;38.70;;;;;;5039361;28;20237;-63
2022/08/23 12:21:23;;;;;;;3.70;2.40;;;28.70;39.60;;;;;;5038394;28;20242;-64
2022/08/23 12:23:59;;;;;;;4.90;2.37;;;28.70;39.40;;;;;;5040335;28;20262;-65
2022/08/23 12:26:33;;;;;;;3.47;2.50;;;28.80;39.00;;;;;;5035893;28;20726;-64
2022/08/23 12:29:08;;;;;;;3.03;2.37;;;28.60;39.30;;;;;;5037132;28;20233;-65
2022/08/23 12:31:52;;;;;;;4.73;2.60;;;28.60;39.60;;;;;;5039719;28;20174;-63
2022/08/23 12:34:31;;;;;;;5.80;2.60;;;28.70;39.00;;;;;;5043556;28;20208;-65
2022/08/23 12:37:19;;;;;;;4.23;2.53;;;28.80;38.90;;;;;;5044834;28;20278;-65
2022/08/23 12:39:53;;;;;;;4.47;2.30;;;28.90;38.90;;;;;;5053470;28;20177;-65
2022/08/23 12:42:32;;;;;;;3.97;2.13;;;28.70;37.80;;;;;;5057572;28;20171;-65
2022/08/23 12:45:19;;;;;;;3.03;1.90;;;28.40;38.20;;;;;;5053905;28;20217;-65
2022/08/23 12:48:00;;;;;;;8.83;2.43;;;28.30;38.50;;;;;;5048569;28;20193;-65
2022/08/23 12:50:36;;;;;;;5.87;2.47;;;28.40;38.80;;;;;;5047598;28;20171;-65
2022/08/23 12:53:14;;;;;;;3.33;2.30;;;28.50;38.70;;;;;;5042721;28;20543;-63
2022/08/23 12:55:46;;;;;;;1.97;1.87;;;28.80;39.60;;;;;;5049517;28;20202;-65
2022/08/23 12:58:15;;;;;;;4.57;2.67;;;29.10;38.30;;;;;;5053263;28;20183;-64
2022/08/23 13:00:56;;;;;;;2.67;2.03;;;29.30;37.60;;;;;;5049985;28;20282;-64
2022/08/23 13:03:32;;;;;;;4.10;2.38;;;29.40;36.90;;;;;;5048905;28;20171;-64
2022/08/23 13:06:05;;;;;;;9.10;2.70;;;29.40;37.40;;;;;;5047347;28;20186;-67
2022/08/23 13:08:38;;;;;;;5.35;2.42;;;29.50;37.40;;;;;;5032558;28;20266;-64
2022/08/23 13:11:06;;;;;;;6.20;2.58;;;29.70;37.60;;;;;;5054275;28;20175;-65
2022/08/23 13:13:32;;;;;;;4.57;2.47;;;29.80;37.10;;;;;;5050769;28;20194;-64
2022/08/23 13:16:00;;;;;;;4.03;2.40;;;30.00;37.10;;;;;;5061938;28;20225;-65